Time;durP1;ratioP1;P1;durP2;ratioP2;P2;SDS_P1;SDS_P2;PMS_P1;PMS_P2;Temp;Humidity;BMP_temperature;BMP_pressure;BME280_temperature;BME280_humidity;BME280_pressure;Samples;Min_cycle;Max_cycle;Signal;HPM_P1;HPM_P2
2021/07/21 00:01:39;;;;;;;10.40;7.28;;;;;;;13.70;66.66;100971.28;1827130;78;21056;-78
2021/07/21 00:04:05;;;;;;;11.15;6.75;;;;;;;13.72;66.77;100966.60;1826822;78;20961;-78
2021/07/21 00:06:31;;;;;;;13.72;7.67;;;;;;;13.72;66.90;100963.92;1826818;78;20970;-78
2021/07/21 00:08:57;;;;;;;13.95;7.35;;;;;;;13.70;66.99;100956.55;1827283;78;21044;-78
2021/07/21 00:14:19;;;;;;;12.80;6.87;;;;;;;13.68;67.25;100969.30;1827365;78;21036;-78
2021/07/21 00:16:42;;;;;;;11.60;7.10;;;;;;;13.70;67.36;100971.28;1825584;78;20973;-78
2021/07/21 00:21:37;;;;;;;13.13;7.12;;;;;;;13.72;67.59;100973.30;1787449;78;21307;-78
2021/07/21 00:24:04;;;;;;;10.82;6.50;;;;;;;13.70;67.70;100964.59;1827510;78;21713;-78
2021/07/21 00:26:30;;;;;;;16.23;7.40;;;;;;;13.69;67.81;100963.75;1827410;78;20974;-78
2021/07/21 00:28:56;;;;;;;11.28;7.78;;;;;;;13.69;67.90;100962.91;1827109;78;20981;-78
2021/07/21 00:31:22;;;;;;;11.18;7.05;;;;;;;13.68;68.00;100964.78;1827628;78;20938;-78
2021/07/21 00:33:48;;;;;;;16.25;7.90;;;;;;;13.64;68.09;100967.48;1827141;78;21012;-78
2021/07/21 00:36:14;;;;;;;12.82;7.20;;;;;;;13.61;68.20;100968.34;1827259;78;21112;-78
2021/07/21 00:38:41;;;;;;;10.53;6.97;;;;;;;13.58;68.31;100966.81;1827335;78;21020;-78
2021/07/21 00:41:07;;;;;;;15.43;7.90;;;;;;;13.57;68.41;100969.69;1826998;78;21541;-78
2021/07/21 00:43:33;;;;;;;17.12;6.90;;;;;;;13.51;68.51;100964.00;1827023;77;21040;-78
2021/07/21 00:45:59;;;;;;;13.48;6.67;;;;;;;13.48;68.62;100964.36;1827327;77;21060;-78
2021/07/21 00:48:25;;;;;;;11.48;7.22;;;;;;;13.44;68.71;100965.72;1787685;78;21162;-78
2021/07/21 00:50:54;;;;;;;10.30;7.10;;;;;;;13.42;68.82;100962.89;1692257;83;21072;-78
2021/07/21 00:53:21;;;;;;;11.33;7.08;;;;;;;13.39;68.92;100960.06;1656944;85;21077;-78
2021/07/21 00:55:47;;;;;;;12.53;8.20;;;;;;;13.34;69.03;100962.41;1701212;83;21458;-78
2021/07/21 00:58:13;;;;;;;12.28;7.97;;;;;;;13.30;69.14;100961.09;1676314;85;21101;-78
2021/07/21 01:00:40;;;;;;;13.85;7.80;;;;;;;13.27;69.25;100957.42;1701359;84;21049;-78
2021/07/21 01:03:06;;;;;;;15.98;7.72;;;;;;;13.26;69.33;100957.11;1676415;85;21038;-78
2021/07/21 01:05:33;;;;;;;16.70;7.37;;;;;;;13.25;69.44;100960.80;1701173;84;21002;-78
2021/07/21 01:08:00;;;;;;;13.35;7.30;;;;;;;13.21;69.52;100959.46;1676149;85;21015;-78
2021/07/21 01:10:27;;;;;;;9.93;7.65;;;;;;;13.19;69.64;100957.47;1701361;84;21013;-78
2021/07/21 01:13:18;;;;;;;13.58;7.40;;;;;;;13.17;69.72;100962.65;1676353;84;21494;-78
2021/07/21 01:16:05;;;;;;;11.35;8.68;;;;;;;13.14;69.82;100961.66;1700956;84;21053;-78
2021/07/21 01:18:47;;;;;;;13.38;8.53;;;;;;;13.09;69.92;100960.83;1676277;85;21074;-78
2021/07/21 01:21:51;;;;;;;17.15;7.87;;;;;;;13.06;70.06;100960.31;1701197;84;21002;-78
2021/07/21 01:24:44;;;;;;;13.48;8.65;;;;;;;13.02;70.18;100964.67;1676058;85;21046;-78
2021/07/21 01:27:32;;;;;;;12.47;8.55;;;;;;;12.99;70.28;100960.16;1701482;84;21135;-78
2021/07/21 01:30:03;;;;;;;14.40;8.05;;;;;;;12.94;70.39;100964.72;1654572;85;21057;-78
2021/07/21 01:32:31;;;;;;;20.90;9.23;;;;;;;12.92;70.50;100971.23;1701075;84;21065;-78
2021/07/21 01:35:05;;;;;;;17.17;9.08;;;;;;;12.89;70.57;100972.91;1676159;85;21094;-78
2021/07/21 01:37:32;;;;;;;12.07;8.55;;;;;;;12.88;70.67;100973.91;1697011;82;21057;-78
2021/07/21 01:40:03;;;;;;;12.40;8.73;;;;;;;12.87;70.77;100974.94;1676239;85;21806;-78
2021/07/21 01:42:29;;;;;;;14.07;8.68;;;;;;;12.86;70.87;100973.25;1701216;82;21521;-78
2021/07/21 01:44:55;;;;;;;12.23;8.65;;;;;;;12.84;70.96;100971.27;1701427;84;21000;-78
2021/07/21 01:47:22;;;;;;;14.13;8.78;;;;;;;12.81;71.04;100976.44;1701336;84;21039;-78
2021/07/21 01:49:50;;;;;;;12.40;8.55;;;;;;;12.80;71.14;100971.27;1688381;84;21056;-78
2021/07/21 01:52:24;;;;;;;15.10;9.70;;;;;;;12.78;71.24;100972.77;1701713;84;21014;-78
2021/07/21 01:54:50;;;;;;;14.30;8.45;;;;;;;12.79;71.34;100974.94;1701427;84;21026;-78
2021/07/21 01:57:16;;;;;;;11.75;8.88;;;;;;;12.78;71.41;100975.94;1701565;84;21070;-78
2021/07/21 01:59:44;;;;;;;12.53;8.45;;;;;;;12.78;71.51;100974.59;1701629;84;21026;-78
2021/07/21 02:02:10;;;;;;;17.30;8.55;;;;;;;12.76;71.60;100976.63;1702096;84;21587;-78
2021/07/21 02:04:36;;;;;;;13.03;8.18;;;;;;;12.76;71.68;100973.45;1701427;83;21100;-78
2021/07/21 02:07:08;;;;;;;11.63;8.08;;;;;;;12.75;71.76;100972.27;1701567;84;21012;-78
2021/07/21 02:09:34;;;;;;;11.25;8.95;;;;;;;12.74;71.88;100974.10;1701702;84;21551;-78
2021/07/21 02:12:00;;;;;;;12.53;8.20;;;;;;;12.71;71.96;100969.59;1701663;83;21016;-78
2021/07/21 02:14:28;;;;;;;16.60;9.55;;;;;;;12.69;72.04;100968.94;1676152;85;21038;-78
2021/07/21 02:16:55;;;;;;;13.88;9.15;;;;;;;12.67;72.15;100976.28;1697913;83;21135;-78
2021/07/21 02:19:21;;;;;;;12.05;8.43;;;;;;;12.65;72.25;100983.16;1705965;84;21022;-78
2021/07/21 02:21:47;;;;;;;16.82;9.70;;;;;;;12.64;72.34;100979.30;1701750;84;21020;-78
2021/07/21 02:24:13;;;;;;;12.82;9.13;;;;;;;12.65;72.42;100979.64;1701922;83;21017;-78
2021/07/21 02:26:40;;;;;;;16.02;8.88;;;;;;;12.63;72.49;100977.66;1701695;83;21079;-78
2021/07/21 02:29:06;;;;;;;14.35;9.08;;;;;;;12.63;72.58;100977.66;1701673;84;21116;-78
2021/07/21 02:31:49;;;;;;;16.55;8.93;;;;;;;12.62;72.67;100975.97;1676199;85;21078;-78
2021/07/21 02:34:15;;;;;;;15.90;9.80;;;;;;;12.61;72.75;100981.83;1688983;83;21058;-78
2021/07/21 02:36:41;;;;;;;18.60;9.25;;;;;;;12.62;72.85;100985.34;1705828;84;21018;-78
2021/07/21 02:39:08;;;;;;;13.85;8.73;;;;;;;12.62;72.93;100981.33;1701379;83;21096;-78
2021/07/21 02:41:36;;;;;;;10.98;8.93;;;;;;;12.61;73.01;100985.84;1701685;84;21742;-78
2021/07/21 02:44:04;;;;;;;14.33;8.48;;;;;;;12.63;73.07;100981.67;1701717;83;21004;-78
2021/07/21 02:46:30;;;;;;;16.57;10.10;;;;;;;12.63;73.13;100988.36;1701776;83;20977;-78
2021/07/21 02:48:56;;;;;;;17.95;10.08;;;;;;;12.63;73.22;100988.36;1690233;84;21028;-77
2021/07/21 02:51:53;;;;;;;19.55;10.85;;;;;;;12.66;73.30;100990.69;1704150;83;21026;-78
2021/07/21 02:54:41;;;;;;;18.95;10.38;;;;;;;12.67;73.36;100995.02;1732579;82;21166;-78
2021/07/21 02:57:22;;;;;;;17.05;10.30;;;;;;;12.67;73.45;100995.02;1704228;83;21482;-78
2021/07/21 02:59:54;;;;;;;17.17;9.95;;;;;;;12.66;73.53;101000.06;1707822;82;21001;-78
2021/07/21 03:02:23;;;;;;;14.87;10.20;;;;;;;12.67;73.60;100997.69;1732535;82;21005;-78
2021/07/21 03:04:50;;;;;;;18.90;9.87;;;;;;;12.66;73.68;100993.37;1699327;84;21109;-78
2021/07/21 03:07:18;;;;;;;15.13;9.20;;;;;;;12.68;73.76;100999.37;1728051;81;21099;-78
2021/07/21 03:09:44;;;;;;;12.47;8.93;;;;;;;12.70;73.83;100996.05;1728065;81;21483;-78
2021/07/21 03:12:12;;;;;;;12.33;9.43;;;;;;;12.72;73.90;100999.37;1727997;83;21022;-78
2021/07/21 03:14:40;;;;;;;14.40;8.75;;;;;;;12.73;73.98;100997.04;1723114;83;21010;-78
2021/07/21 03:17:06;;;;;;;15.38;9.80;;;;;;;12.74;74.05;100997.34;1722821;83;21547;-78
2021/07/21 03:19:33;;;;;;;15.38;9.25;;;;;;;12.77;74.13;100994.36;1723083;83;21765;-78
2021/07/21 03:21:59;;;;;;;12.07;9.38;;;;;;;12.78;74.20;101000.03;1722599;83;21014;-78
2021/07/21 03:24:26;;;;;;;12.13;9.30;;;;;;;12.81;74.26;100999.69;1722690;83;21027;-78
2021/07/21 03:26:52;;;;;;;17.50;10.63;;;;;;;12.84;74.33;101000.71;1722743;83;21046;-78
2021/07/21 03:29:21;;;;;;;13.45;8.80;;;;;;;12.90;74.42;101008.05;1722984;83;21069;-78
2021/07/21 03:31:47;;;;;;;13.20;9.85;;;;;;;12.93;74.48;101010.39;1722960;83;21046;-78
2021/07/21 03:34:13;;;;;;;16.77;9.53;;;;;;;12.98;74.54;101013.41;1722863;83;21034;-78
2021/07/21 03:36:44;;;;;;;16.62;9.55;;;;;;;13.01;74.57;101022.43;1722946;83;21054;-78
2021/07/21 03:39:11;;;;;;;16.17;9.50;;;;;;;13.03;74.63;101019.06;1722906;83;21534;-78
2021/07/21 03:41:37;;;;;;;13.38;9.23;;;;;;;13.08;74.71;101024.75;1700756;83;20983;-78
2021/07/21 03:44:04;;;;;;;12.73;9.53;;;;;;;13.11;74.77;101016.91;1722755;83;21031;-78
2021/07/21 03:46:31;;;;;;;13.58;9.53;;;;;;;13.16;74.81;101023.41;1722871;83;21022;-78
2021/07/21 03:48:59;;;;;;;13.58;9.15;;;;;;;13.21;74.87;101019.73;1722791;83;21023;-78
2021/07/21 03:51:25;;;;;;;16.97;9.85;;;;;;;13.25;74.91;101025.08;1697995;83;21483;-78
2021/07/21 03:53:51;;;;;;;16.02;10.32;;;;;;;13.29;74.98;101026.41;1729606;82;21008;-78
2021/07/21 03:56:17;;;;;;;15.23;10.55;;;;;;;13.35;75.01;101027.55;1739344;81;21117;-79
2021/07/21 03:58:44;;;;;;;20.10;10.95;;;;;;;13.37;75.06;101026.36;1706793;82;20984;-78
2021/07/21 04:01:10;;;;;;;15.38;9.95;;;;;;;13.40;75.10;101027.88;1731232;82;20990;-78
2021/07/21 04:03:38;;;;;;;14.60;10.20;;;;;;;13.42;75.15;101024.02;1738438;82;21086;-78
2021/07/21 04:06:04;;;;;;;15.93;10.23;;;;;;;13.43;75.20;101027.53;1721284;82;21049;-78
2021/07/21 04:08:30;;;;;;;15.00;10.45;;;;;;;13.45;75.24;101026.34;1721498;82;21044;-78
2021/07/21 04:10:56;;;;;;;12.50;10.32;;;;;;;13.46;75.29;101026.69;1751208;82;20976;-78
2021/07/21 04:13:23;;;;;;;22.25;10.00;;;;;;;13.46;75.32;101026.69;1738634;81;21487;-79
2021/07/21 04:15:49;;;;;;;14.20;10.65;;;;;;;13.50;75.37;101033.37;1744864;82;21034;-79
2021/07/21 04:18:16;;;;;;;13.38;9.45;;;;;;;13.56;75.41;101035.01;1749482;81;21039;-79
2021/07/21 04:20:42;;;;;;;17.77;10.72;;;;;;;13.60;75.45;101035.00;1721656;82;21071;-78
2021/07/21 04:23:08;;;;;;;11.65;9.83;;;;;;;13.66;75.48;101036.47;1728050;82;21050;-78
2021/07/21 04:25:34;;;;;;;16.97;9.80;;;;;;;13.71;75.52;101035.95;1710049;82;21570;-78
2021/07/21 04:28:00;;;;;;;12.58;9.75;;;;;;;13.78;75.54;101043.63;1695294;82;21058;-78
2021/07/21 04:30:31;;;;;;;16.00;10.72;;;;;;;13.81;75.56;101037.92;1752151;81;21003;-79
2021/07/21 04:32:57;;;;;;;15.65;10.18;;;;;;;13.86;75.60;101044.94;1753735;81;21003;-78
2021/07/21 04:35:25;;;;;;;11.93;9.15;;;;;;;13.89;75.61;101043.25;1755563;81;21034;-79
2021/07/21 04:37:51;;;;;;;16.85;9.95;;;;;;;13.95;75.62;101049.23;1708914;83;21018;-79
2021/07/21 04:40:17;;;;;;;12.65;10.13;;;;;;;13.99;75.65;101053.25;1734211;81;20986;-78
2021/07/21 04:42:44;;;;;;;20.72;10.38;;;;;;;14.00;75.64;101055.73;1696848;84;21148;-79
2021/07/21 04:45:11;;;;;;;19.40;11.78;;;;;;;14.01;75.66;101063.28;1745571;81;21752;-78
2021/07/21 04:47:37;;;;;;;20.08;10.10;;;;;;;14.01;75.65;101064.62;1734037;81;20995;-78
2021/07/21 04:50:12;;;;;;;18.85;10.72;;;;;;;14.05;75.69;101063.27;1735052;81;20998;-78
2021/07/21 04:52:38;;;;;;;14.20;10.48;;;;;;;14.07;75.68;101066.62;1755616;81;21640;-79
2021/07/21 04:55:06;;;;;;;15.78;11.00;;;;;;;14.08;75.71;101065.59;1745796;81;21041;-78
2021/07/21 04:57:32;;;;;;;16.23;10.93;;;;;;;14.08;75.72;101065.59;1732246;81;21539;-79
2021/07/21 04:59:58;;;;;;;16.77;10.72;;;;;;;14.08;75.72;101064.24;1728508;81;21652;-79
2021/07/21 05:02:24;;;;;;;15.93;10.60;;;;;;;14.09;75.73;101065.92;1744094;81;20998;-79
2021/07/21 05:04:50;;;;;;;17.57;10.75;;;;;;;14.11;75.72;101067.91;1758625;81;21010;-79
2021/07/21 05:07:18;;;;;;;13.13;10.20;;;;;;;14.14;75.75;101062.72;1741728;81;21482;-79
2021/07/21 05:09:44;;;;;;;21.97;11.12;;;;;;;14.18;75.78;101061.36;1731913;81;21235;-78
2021/07/21 05:12:10;;;;;;;20.02;10.50;;;;;;;14.22;75.79;101064.83;1749707;81;21037;-78
2021/07/21 05:14:37;;;;;;;17.98;10.58;;;;;;;14.27;75.78;101062.97;1730808;81;21078;-78
2021/07/21 05:17:03;;;;;;;19.80;10.55;;;;;;;14.32;75.78;101069.99;1735846;81;21074;-78
2021/07/21 05:19:29;;;;;;;13.45;10.00;;;;;;;14.35;75.81;101077.22;1740778;81;21542;-78
2021/07/21 05:21:56;;;;;;;15.85;9.45;;;;;;;14.39;75.76;101075.01;1742535;81;21450;-78
2021/07/21 05:24:22;;;;;;;14.28;10.53;;;;;;;14.43;75.76;101078.98;1748135;81;20990;-78
2021/07/21 05:26:48;;;;;;;13.28;10.32;;;;;;;14.49;75.74;101074.27;1726891;81;21025;-78
2021/07/21 05:29:15;;;;;;;14.80;10.25;;;;;;;14.54;75.74;101079.07;1738275;81;21081;-79
2021/07/21 05:31:41;;;;;;;16.90;10.05;;;;;;;14.54;75.71;101076.39;1745133;81;20982;-79
2021/07/21 05:36:52;;;;;;;16.95;10.72;;;;;;;14.56;75.68;101079.75;1850466;77;22782;-79
2021/07/21 05:39:18;;;;;;;15.72;10.18;;;;;;;14.49;75.68;101079.63;1818853;77;20931;-79
2021/07/21 05:41:45;;;;;;;17.10;11.03;;;;;;;14.64;75.66;101079.66;1802200;78;21112;-79
2021/07/21 05:44:11;;;;;;;12.43;9.70;;;;;;;15.23;75.56;101072.11;1784766;80;21138;-79
2021/07/21 05:46:37;;;;;;;18.52;10.80;;;;;;;16.05;75.43;101074.16;1757220;80;21029;-76
2021/07/21 05:49:03;;;;;;;17.50;9.75;;;;;;;16.69;75.27;101087.22;1797274;78;21584;-76
2021/07/21 05:51:29;;;;;;;14.63;9.15;;;;;;;17.24;74.99;101087.77;1792682;78;22057;-75
2021/07/21 05:53:57;;;;;;;13.98;9.50;;;;;;;17.72;74.72;101087.91;1812246;78;21608;-75
2021/07/21 05:56:25;;;;;;;15.68;8.25;;;;;;;18.27;74.41;101082.83;1819393;78;21012;-77
2021/07/21 05:58:51;;;;;;;15.40;8.33;;;;;;;18.70;73.91;101084.73;1791467;79;20982;-76
2021/07/21 06:01:17;;;;;;;14.10;7.33;;;;;;;19.10;73.48;101093.19;1763860;80;21046;-77
2021/07/21 06:03:43;;;;;;;16.67;7.37;;;;;;;19.46;72.97;101087.87;1787222;79;21026;-79
2021/07/21 06:06:09;;;;;;;12.78;7.47;;;;;;;19.81;72.46;101091.92;1800915;78;21183;-75
2021/07/21 06:08:35;;;;;;;18.02;10.90;;;;;;;20.16;71.90;101093.78;1770923;80;20994;-77
2021/07/21 06:11:01;;;;;;;14.07;7.37;;;;;;;20.35;71.25;101084.74;1793743;78;21474;-77
2021/07/21 06:13:29;;;;;;;13.03;7.53;;;;;;;20.64;70.70;101098.23;1787684;79;21006;-77
2021/07/21 06:15:55;;;;;;;14.47;6.67;;;;;;;20.98;70.08;101097.76;1789895;80;21030;-77
2021/07/21 06:18:21;;;;;;;14.58;5.70;;;;;;;21.33;69.41;101104.37;1825992;78;21556;-77
2021/07/21 06:20:47;;;;;;;9.28;5.72;;;;;;;21.74;68.80;101100.21;1776773;80;20974;-77
2021/07/21 06:23:13;;;;;;;7.15;5.05;;;;;;;21.88;68.12;101099.00;1803496;78;21002;-77
2021/07/21 06:25:39;;;;;;;8.88;5.35;;;;;;;21.98;67.35;101093.89;1806329;78;21005;-77
2021/07/21 06:28:05;;;;;;;10.28;5.30;;;;;;;22.21;66.62;101099.44;1793857;79;20966;-77
2021/07/21 06:30:32;;;;;;;9.43;5.12;;;;;;;22.49;65.81;101093.41;1760404;81;21668;-77
2021/07/21 06:32:58;;;;;;;8.15;5.70;;;;;;;22.62;64.97;101106.00;1793268;79;20978;-77
2021/07/21 06:35:24;;;;;;;10.78;4.95;;;;;;;22.63;64.27;101103.55;1760199;81;20978;-77
2021/07/21 06:37:50;;;;;;;5.78;4.05;;;;;;;22.54;63.51;101106.31;1793342;79;21422;-77
2021/07/21 06:40:17;;;;;;;10.00;5.15;;;;;;;22.24;62.92;101104.41;1760305;81;21402;-77
2021/07/21 06:42:44;;;;;;;12.43;4.87;;;;;;;22.02;62.45;101111.41;1793004;80;21728;-77
2021/07/21 06:45:10;;;;;;;8.00;5.10;;;;;;;21.79;62.12;101112.56;1760470;81;20980;-77
2021/07/21 06:47:36;;;;;;;7.70;5.20;;;;;;;21.58;61.85;101117.07;1792848;80;20959;-77
2021/07/21 06:50:03;;;;;;;11.00;5.28;;;;;;;21.41;61.71;101112.75;1759667;81;21482;-77
2021/07/21 06:52:29;;;;;;;6.45;5.75;;;;;;;21.15;61.42;101115.17;1800458;78;21097;-77
2021/07/21 06:54:56;;;;;;;9.68;5.70;;;;;;;21.03;61.24;101119.64;1809215;78;21372;-77
2021/07/21 06:57:22;;;;;;;123.65;26.07;;;;;;;21.02;61.10;101122.03;1823635;78;21030;-77
2021/07/21 06:59:48;;;;;;;87.82;23.30;;;;;;;21.02;60.96;101125.27;1822999;78;21413;-78
2021/07/21 07:02:14;;;;;;;11.93;5.72;;;;;;;21.01;60.83;101124.95;1823609;78;21521;-78
2021/07/21 07:04:40;;;;;;;9.53;5.42;;;;;;;21.24;60.80;101119.28;1823717;78;20992;-78
2021/07/21 07:07:06;;;;;;;8.85;5.28;;;;;;;21.73;60.69;101128.41;1823706;78;21661;-77
2021/07/21 07:09:32;;;;;;;7.05;4.53;;;;;;;21.92;60.30;101130.09;1823069;78;20982;-78
2021/07/21 07:11:58;;;;;;;12.95;5.47;;;;;;;21.96;60.06;101134.55;1823261;78;21566;-78
2021/07/21 07:14:24;;;;;;;11.78;5.78;;;;;;;21.83;59.77;101135.50;1810532;78;21506;-77
2021/07/21 07:16:51;;;;;;;9.03;4.58;;;;;;;21.62;59.53;101134.58;1792663;80;20915;-78
2021/07/21 07:19:17;;;;;;;20.27;7.78;;;;;;;21.58;59.42;101138.79;1816754;78;21638;-78
2021/07/21 07:21:43;;;;;;;12.55;5.78;;;;;;;21.58;59.26;101140.14;1823469;78;20952;-78
2021/07/21 07:24:09;;;;;;;12.10;6.78;;;;;;;21.68;59.17;101141.81;1825063;78;20970;-77
2021/07/21 07:26:35;;;;;;;13.55;5.45;;;;;;;21.69;58.85;101137.53;1799599;78;20966;-78
2021/07/21 07:29:03;;;;;;;11.55;5.37;;;;;;;21.72;58.72;101140.31;1760005;81;21442;-77
2021/07/21 07:31:29;;;;;;;9.13;4.70;;;;;;;21.74;58.47;101143.10;1792885;80;21619;-78
2021/07/21 07:33:55;;;;;;;10.95;5.33;;;;;;;21.72;58.22;101143.87;1759262;81;20950;-78
2021/07/21 07:36:22;;;;;;;8.43;4.55;;;;;;;21.72;58.00;101143.87;1792420;80;21021;-78
2021/07/21 07:38:48;;;;;;;13.78;4.95;;;;;;;21.69;57.73;101139.41;1759686;81;20966;-78
2021/07/21 07:41:14;;;;;;;6.85;4.53;;;;;;;21.74;57.59;101146.38;1792764;80;20946;-77
2021/07/21 07:43:40;;;;;;;8.98;4.75;;;;;;;21.78;57.47;101147.55;1759962;81;21577;-78
2021/07/21 07:46:07;;;;;;;10.20;5.37;;;;;;;21.71;57.21;101146.83;1792579;80;21382;-77
2021/07/21 07:48:34;;;;;;;11.10;4.90;;;;;;;21.59;57.05;101141.30;1759675;81;20958;-77
2021/07/21 07:51:00;;;;;;;7.78;4.92;;;;;;;21.59;57.02;101143.17;1792508;80;20986;-77
2021/07/21 07:53:26;;;;;;;16.23;6.03;;;;;;;21.66;57.04;101142.58;1759851;81;21466;-77
2021/07/21 07:55:52;;;;;;;10.53;4.87;;;;;;;21.71;56.90;101147.62;1792284;80;22330;-77
2021/07/21 07:58:19;;;;;;;12.60;5.28;;;;;;;21.75;56.80;101145.30;1759506;81;20913;-78
2021/07/21 08:00:46;;;;;;;11.35;5.72;;;;;;;21.63;56.54;101143.03;1792747;80;21006;-78
2021/07/21 08:03:12;;;;;;;8.05;5.60;;;;;;;21.58;56.48;101144.22;1759973;81;20981;-77
2021/07/21 08:05:38;;;;;;;9.58;5.00;;;;;;;21.70;56.45;101139.73;1792782;80;20989;-77
2021/07/21 08:08:04;;;;;;;12.20;5.60;;;;;;;21.68;56.15;101141.81;1759704;81;21511;-78
2021/07/21 08:10:31;;;;;;;13.35;5.80;;;;;;;21.74;56.19;101140.94;1792427;80;21717;-77
2021/07/21 08:12:58;;;;;;;9.43;5.33;;;;;;;21.92;56.19;101143.67;1759391;81;21033;-77
2021/07/21 08:15:24;;;;;;;19.80;5.35;;;;;;;22.02;56.07;101145.36;1792609;80;21006;-77
2021/07/21 08:17:50;;;;;;;17.67;5.53;;;;;;;22.07;55.98;101148.20;1759566;81;20971;-77
2021/07/21 08:20:16;;;;;;;9.40;5.40;;;;;;;22.08;55.90;101145.80;1792704;80;21617;-78
2021/07/21 08:22:42;;;;;;;23.80;6.92;;;;;;;22.06;55.75;101147.90;1759668;81;21017;-78
2021/07/21 08:25:12;;;;;;;8.50;5.20;;;;;;;22.18;55.72;101150.70;1792660;80;20977;-78
2021/07/21 08:27:38;;;;;;;10.98;5.72;;;;;;;22.23;55.64;101154.41;1792329;80;20927;-78
2021/07/21 08:30:09;;;;;;;8.68;5.40;;;;;;;22.23;55.54;101157.65;1759611;81;20989;-78
2021/07/21 08:32:35;;;;;;;;;;;;;;;22.21;55.47;101156.50;1795176;79;21694;-77
2021/07/21 08:35:01;;;;;;;9.43;5.28;;;;;;;22.10;55.26;101156.42;1793039;80;20139;-78
2021/07/21 08:37:27;;;;;;;7.40;5.03;;;;;;;22.05;55.20;101161.20;1757332;81;21006;-77
2021/07/21 08:39:53;;;;;;;6.53;4.33;;;;;;;22.19;55.26;101157.80;1764917;81;21002;-77
2021/07/21 08:42:19;;;;;;;6.05;4.70;;;;;;;22.33;55.15;101157.41;1796839;78;20997;-78
2021/07/21 08:44:45;;;;;;;8.18;4.47;;;;;;;22.45;55.03;101154.73;1811349;78;21790;-80
2021/07/21 08:47:11;;;;;;;10.03;4.85;;;;;;;22.45;54.88;101153.37;1821649;77;20916;-78
2021/07/21 08:49:37;;;;;;;19.62;5.40;;;;;;;22.56;54.71;101164.00;1806317;77;21014;-79
2021/07/21 08:52:04;;;;;;;10.53;5.22;;;;;;;22.60;54.52;101157.05;1824339;78;20967;-79
2021/07/21 08:54:30;;;;;;;6.42;4.15;;;;;;;22.78;54.39;101155.67;1823860;78;21012;-78
2021/07/21 08:56:59;;;;;;;7.08;4.78;;;;;;;22.86;53.85;101159.44;1811891;78;21793;-78
2021/07/21 08:59:24;;;;;;;9.73;4.60;;;;;;;22.92;53.73;101166.66;1806100;78;21507;-79
2021/07/21 09:01:50;;;;;;;5.45;4.62;;;;;;;22.94;53.41;101167.80;1792002;80;20959;-79
2021/07/21 09:04:16;;;;;;;6.72;4.65;;;;;;;22.89;53.06;101171.20;1801397;78;20974;-78
2021/07/21 09:06:42;;;;;;;6.65;5.05;;;;;;;22.90;52.82;101168.80;1791467;80;21072;-78
2021/07/21 09:09:09;;;;;;;9.80;5.33;;;;;;;22.89;52.58;101161.69;1790960;79;21924;-78
2021/07/21 09:11:36;;;;;;;7.70;4.78;;;;;;;22.76;52.12;101164.61;1814694;78;21010;-77
2021/07/21 09:14:02;;;;;;;8.88;4.55;;;;;;;22.76;52.05;101165.97;1777060;80;21018;-77
2021/07/21 09:16:28;;;;;;;6.28;4.80;;;;;;;22.90;52.07;101168.80;1764015;79;21966;-78
2021/07/21 09:18:57;;;;;;;8.83;4.80;;;;;;;23.05;52.06;101170.53;1810349;78;21421;-77
2021/07/21 09:21:23;;;;;;;7.95;4.58;;;;;;;23.00;51.56;101164.98;1771550;80;21672;-78
2021/07/21 09:23:54;;;;;;;6.78;5.17;;;;;;;23.02;51.50;101169.64;1801386;77;21569;-77
2021/07/21 09:26:32;;;;;;;6.90;4.62;;;;;;;23.16;51.42;101170.26;1835492;77;21485;-79
2021/07/21 09:29:00;;;;;;;9.65;5.53;;;;;;;23.20;51.14;101158.68;1827858;77;21009;-77
2021/07/21 09:31:37;;;;;;;9.28;4.58;;;;;;;23.30;51.15;101165.73;1744802;81;21404;-78
2021/07/21 09:34:20;;;;;;;9.60;4.65;;;;;;;23.55;51.08;101164.72;1793745;78;21697;-78
2021/07/21 09:36:47;;;;;;;9.05;4.97;;;;;;;23.64;50.78;101168.23;1793051;79;21024;-78
2021/07/21 09:39:14;;;;;;;8.90;5.15;;;;;;;23.71;50.58;101161.30;1797315;79;21002;-78
2021/07/21 09:41:51;;;;;;;8.95;4.67;;;;;;;23.75;50.31;101161.92;1795499;79;21085;-77
2021/07/21 09:44:18;;;;;;;7.70;5.05;;;;;;;23.84;50.21;101159.69;1782645;80;21616;-77
2021/07/21 09:46:44;;;;;;;7.45;4.80;;;;;;;23.83;49.99;101160.73;1828837;77;22472;-77
2021/07/21 09:49:21;;;;;;;8.03;5.37;;;;;;;23.91;49.75;101160.91;1768219;78;21412;-77
2021/07/21 09:51:47;;;;;;;7.65;4.65;;;;;;;23.86;49.58;101158.89;1790335;78;21564;-77
2021/07/21 09:54:17;;;;;;;8.03;5.20;;;;;;;23.99;49.50;101151.85;1802029;78;21060;-77
2021/07/21 09:56:44;;;;;;;;;;;;;;;23.94;49.19;101158.55;1786655;79;21026;-78
2021/07/21 09:59:31;;;;;;;8.85;4.92;;;;;;;23.75;48.89;101153.75;1764438;81;21849;-77
2021/07/21 10:01:57;;;;;;;8.23;4.60;;;;;;;23.74;48.74;101151.28;1764669;81;21007;-77
2021/07/21 10:04:35;;;;;;;7.05;5.12;;;;;;;23.73;48.43;101159.16;1785300;79;21030;-77
2021/07/21 10:07:11;;;;;;;13.50;6.00;;;;;;;23.75;48.20;101151.03;1817436;78;21029;-77
2021/07/21 10:09:30;;;;;;;9.83;4.80;;;;;;;23.68;48.03;101150.88;1824282;78;20997;-76
2021/07/21 10:11:56;;;;;;;8.48;5.33;;;;;;;23.65;47.80;101151.33;1816926;78;21865;-76
2021/07/21 10:14:22;;;;;;;6.60;4.62;;;;;;;23.56;47.61;101152.77;1792089;80;21001;-76
2021/07/21 10:16:52;;;;;;;7.65;4.97;;;;;;;23.61;47.75;101154.26;1810320;78;21024;-77
2021/07/21 10:19:25;;;;;;;7.00;4.78;;;;;;;23.65;47.53;101145.88;1793260;78;21620;-76
2021/07/21 10:21:59;;;;;;;9.18;5.65;;;;;;;23.63;47.04;101142.58;1791396;80;21017;-75
2021/07/21 10:24:34;;;;;;;6.50;4.60;;;;;;;23.71;46.86;101141.70;1797580;78;21725;-76
2021/07/21 10:27:01;;;;;;;6.17;5.05;;;;;;;23.85;46.81;101149.09;1803831;78;21011;-76
2021/07/21 10:29:27;;;;;;;6.72;4.78;;;;;;;23.90;46.31;101139.64;1793175;78;21064;-76
2021/07/21 10:31:53;;;;;;;7.92;5.25;;;;;;;23.92;46.35;101135.33;1792621;78;21008;-76
2021/07/21 10:34:20;;;;;;;8.95;3.95;;;;;;;24.01;46.21;101142.89;1791743;80;21564;-76
2021/07/21 10:36:47;;;;;;;8.35;4.83;;;;;;;24.00;45.70;101137.13;1802522;78;22464;-75
2021/07/21 10:39:19;;;;;;;6.78;4.42;;;;;;;24.15;45.63;101136.66;1795590;78;21064;-76
2021/07/21 10:41:47;;;;;;;9.05;4.90;;;;;;;24.22;45.43;101127.81;1779698;79;20989;-76
2021/07/21 10:44:15;;;;;;;8.88;5.17;;;;;;;23.97;45.36;101136.25;1800796;78;20997;-75
2021/07/21 10:46:52;;;;;;;6.50;4.57;;;;;;;23.71;45.31;101143.59;1823510;78;21025;-76
2021/07/21 10:49:35;;;;;;;5.53;4.42;;;;;;;23.50;45.44;101140.11;1771946;78;21780;-76
2021/07/21 11:00:12;;;;;;;8.80;4.40;;;;;;;22.83;45.57;101143.58;1815061;78;20978;-75
2021/07/21 11:02:38;;;;;;;6.65;5.35;;;;;;;22.79;45.79;101145.94;1828432;78;21638;-75
2021/07/21 11:05:05;;;;;;;10.15;5.25;;;;;;;22.80;45.98;101148.09;1794870;79;21415;-75
2021/07/21 11:07:53;;;;;;;9.48;5.30;;;;;;;22.87;46.12;101150.19;1800586;78;21046;-74
2021/07/21 11:10:40;;;;;;;9.48;5.22;;;;;;;22.96;46.22;101142.53;1811647;78;20906;-74
2021/07/21 11:13:08;;;;;;;7.53;5.10;;;;;;;23.15;46.41;101149.57;1798191;78;20974;-75
2021/07/21 11:15:43;;;;;;;5.60;4.40;;;;;;;23.28;46.42;101149.34;1795377;79;22434;-75
2021/07/21 11:18:30;;;;;;;10.32;4.92;;;;;;;23.55;46.49;101153.82;1795100;79;21362;-75
2021/07/21 11:21:10;;;;;;;8.58;5.70;;;;;;;23.55;46.29;101153.82;1815693;78;21462;-75
2021/07/21 11:23:58;;;;;;;6.67;4.90;;;;;;;23.45;46.22;101146.78;1827285;78;20970;-75
2021/07/21 11:26:36;;;;;;;6.95;4.80;;;;;;;23.16;46.21;101156.13;1822551;78;21045;-75
2021/07/21 11:29:32;;;;;;;7.17;5.10;;;;;;;22.95;46.29;101147.14;1773868;78;21658;-75
2021/07/21 11:31:58;;;;;;;10.15;4.90;;;;;;;22.69;46.39;101150.27;1795703;79;21485;-75
2021/07/21 11:34:36;;;;;;;6.95;4.58;;;;;;;22.53;46.64;101153.59;1795546;79;21402;-76
2021/07/21 11:37:24;;;;;;;11.33;5.22;;;;;;;22.40;46.84;101154.08;1782302;79;21005;-76
2021/07/21 11:39:54;;;;;;;7.25;4.92;;;;;;;22.38;47.02;101157.54;1813986;78;20982;-75
2021/07/21 11:42:31;;;;;;;7.80;4.97;;;;;;;22.39;47.12;101148.33;1781415;79;21579;-75